Time;durP1;ratioP1;P1;durP2;ratioP2;P2;SDS_P1;SDS_P2;PMS_P1;PMS_P2;Temp;Humidity;BMP_temperature;BMP_pressure;BME280_temperature;BME280_humidity;BME280_pressure;Samples;Min_cycle;Max_cycle;Signal;HPM_P1;HPM_P2
2023/04/07 00:00:33;;;;;;;;;;;;;;;8.21;100.00;101403.66;5032409;28;19928;-64
2023/04/07 00:03:01;;;;;;;;;;;;;;;8.19;100.00;101411.72;5025360;28;19921;-64
2023/04/07 00:05:26;;;;;;;;;;;;;;;8.17;100.00;101408.38;5026782;28;19948;-64
2023/04/07 00:07:51;;;;;;;;;;;;;;;8.17;100.00;101412.84;5021760;28;19917;-64
2023/04/07 00:10:16;;;;;;;;;;;;;;;8.15;100.00;101410.34;5021351;28;19922;-64
2023/04/07 00:12:41;;;;;;;;;;;;;;;8.14;100.00;101407.84;5026106;28;19932;-64
2023/04/07 00:15:07;;;;;;;;;;;;;;;8.13;100.00;101407.00;5019597;28;19948;-64
2023/04/07 00:17:32;;;;;;;;;;;;;;;8.12;100.00;101423.00;5026988;28;19925;-64
2023/04/07 00:19:57;;;;;;;;;;;;;;;8.10;100.00;101420.50;5022568;28;20297;-65
2023/04/07 00:22:22;;;;;;;;;;;;;;;8.07;100.00;101420.75;5021991;28;20000;-64
2023/04/07 00:24:47;;;;;;;;;;;;;;;8.06;100.00;101419.09;5027910;28;19913;-64
2023/04/07 00:27:12;;;;;;;;;;;;;;;8.05;100.00;101414.78;5017568;28;19972;-64
2023/04/07 00:29:38;;;;;;;;;;;;;;;8.05;100.00;101414.78;5024022;28;19918;-64
2023/04/07 00:32:03;;;;;;;;;;;;;;;8.05;100.00;101417.44;5020602;28;19944;-64
2023/04/07 00:34:28;;;;;;;;;;;;;;;8.05;100.00;101418.25;5023079;28;20577;-64
2023/04/07 00:36:53;;;;;;;;;;;;;;;8.05;100.00;101410.31;5020336;28;20398;-64
2023/04/07 00:39:19;;;;;;;;;;;;;;;8.06;100.00;101416.44;5024938;28;19914;-64
2023/04/07 00:41:44;;;;;;;;;;;;;;;8.05;100.00;101407.69;5026452;28;19948;-64
2023/04/07 00:44:10;;;;;;;;;;;;;;;8.06;100.00;101409.34;5027730;28;19917;-64
2023/04/07 00:46:35;;;;;;;;;;;;;;;8.06;100.00;101411.16;5022552;28;19927;-64
2023/04/07 00:49:00;;;;;;;;;;;;;;;8.04;100.00;101413.13;5027701;28;19956;-64
2023/04/07 00:51:25;;;;;;;;;;;;;;;8.01;100.00;101414.22;5020666;28;21122;-64
2023/04/07 00:53:51;;;;;;;;;;;;;;;8.00;100.00;101412.56;5022521;28;20451;-64
2023/04/07 00:56:16;;;;;;;;;;;;;;;7.98;100.00;101414.50;5026688;28;20012;-64
2023/04/07 00:58:41;;;;;;;;;;;;;;;7.97;100.00;101412.84;5028837;28;19920;-64
2023/04/07 01:01:08;;;;;;;;;;;;;;;7.98;100.00;101419.81;5026441;28;20402;-64
2023/04/07 01:03:35;;;;;;;;;;;;;;;7.96;100.00;101415.63;5024391;28;20413;-64
2023/04/07 01:06:01;;;;;;;;;;;;;;;7.94;100.00;101415.78;5022661;28;19932;-64
2023/04/07 01:08:31;;;;;;;;;;;;;;;7.94;100.00;101414.94;5023052;28;19917;-64
2023/04/07 01:11:04;;;;;;;;;;;;;;;7.92;100.00;101407.16;5023365;28;19917;-64
2023/04/07 01:13:33;;;;;;;;;;;;;;;7.92;100.00;101411.59;5028075;28;19924;-64
2023/04/07 01:16:00;;;;;;;;;;;;;;;7.92;100.00;101414.25;5027986;28;19954;-64
2023/04/07 01:18:30;;;;;;;;;;;;;;;7.91;100.00;101408.13;5024436;28;19975;-64
2023/04/07 01:20:59;;;;;;;;;;;;;;;7.92;100.00;101411.59;5016029;28;20379;-64
2023/04/07 01:23:53;;;;;;;;;;;;;;;7.92;100.00;101416.88;5018260;28;19913;-64
2023/04/07 01:26:24;;;;;;;;;;;;;;;7.92;100.00;101416.88;4983805;28;19922;-64
2023/04/07 01:29:10;;;;;;;;;;;;;;;7.93;100.00;101413.28;5022598;28;19925;-64
2023/04/07 01:31:36;;;;;;;;;;;;;;;7.92;100.00;101427.47;5024374;28;19967;-64
2023/04/07 01:34:02;;;;;;;;;;;;;;;7.90;100.00;101427.59;5017701;28;19925;-64
2023/04/07 01:36:28;;;;;;;;;;;;;;;7.82;100.00;101418.69;5024235;28;20500;-64
2023/04/07 01:38:53;;;;;;;;;;;;;;;7.86;100.00;101431.50;5025977;28;19962;-64
2023/04/07 01:41:19;;;;;;;;;;;;;;;7.81;100.00;101430.25;5030147;28;20489;-64
2023/04/07 01:43:46;;;;;;;;;;;;;;;7.77;100.00;101433.16;5024188;28;20011;-64
2023/04/07 01:46:11;;;;;;;;;;;;;;;7.77;100.00;101427.03;5019433;28;20358;-64
2023/04/07 01:48:38;;;;;;;;;;;;;;;7.76;100.00;101436.75;5022978;28;20379;-64
2023/04/07 01:51:04;;;;;;;;;;;;;;;7.75;100.00;101429.81;5024672;28;19964;-64
2023/04/07 01:53:30;;;;;;;;;;;;;;;7.75;100.00;101437.75;5020953;28;19924;-64
2023/04/07 01:55:55;;;;;;;;;;;;;;;7.77;100.00;101430.50;5023436;28;19925;-64
2023/04/07 01:58:20;;;;;;;;;;;;;;;7.78;100.00;101436.63;5023508;28;19960;-64
2023/04/07 02:00:45;;;;;;;;;;;;;;;7.80;100.00;101439.13;5029444;28;19923;-64
2023/04/07 02:03:19;;;;;;;;;;;;;;;7.80;100.00;101439.13;5023541;28;19917;-64
2023/04/07 02:05:46;;;;;;;;;;;;;;;7.79;100.00;101438.28;5027130;28;19975;-64
2023/04/07 02:08:12;;;;;;;;;;;;;;;7.80;100.00;101439.97;5021253;28;19917;-64
2023/04/07 02:10:37;;;;;;;;;;;;;;;7.81;100.00;101440.84;5023462;28;20025;-64
2023/04/07 02:13:05;;;;;;;;;;;;;;;7.81;100.00;101440.84;5023955;28;19975;-64
2023/04/07 02:15:31;;;;;;;;;;;;;;;7.82;100.00;101455.72;5024375;28;19921;-64
2023/04/07 02:17:57;;;;;;;;;;;;;;;7.83;100.00;101452.09;5028165;28;20329;-64
2023/04/07 02:20:23;;;;;;;;;;;;;;;7.81;100.00;101454.06;5024616;28;19917;-64
2023/04/07 02:22:48;;;;;;;;;;;;;;;7.81;100.00;101448.75;5022736;28;20416;-64
2023/04/07 02:25:30;;;;;;;;;;;;;;;7.81;100.00;101451.41;5019222;28;19925;-64
2023/04/07 02:27:56;;;;;;;;;;;;;;;7.80;100.00;101449.72;5024746;28;19917;-64
2023/04/07 02:30:21;;;;;;;;;;;;;;;7.82;100.00;101447.78;5026371;28;19924;-64
2023/04/07 02:32:47;;;;;;;;;;;;;;;7.81;100.00;101444.31;5021604;28;19925;-64
2023/04/07 02:35:12;;;;;;;;;;;;;;;7.81;100.00;101446.94;5023932;28;19925;-64
2023/04/07 02:37:37;;;;;;;;;;;;;;;7.80;100.00;101445.25;5022387;28;19917;-63
2023/04/07 02:40:03;;;;;;;;;;;;;;;7.78;99.87;101450.69;5023618;28;19923;-64
2023/04/07 02:42:29;;;;;;;;;;;;;;;7.79;100.00;101448.88;5022277;28;19925;-64
2023/04/07 02:44:54;;;;;;;;;;;;;;;7.76;99.87;101449.16;5020629;28;19979;-64
2023/04/07 02:47:19;;;;;;;;;;;;;;;7.74;99.93;101448.44;5026915;28;19921;-64
2023/04/07 02:49:45;;;;;;;;;;;;;;;7.71;99.78;101446.09;5023209;28;19924;-64
2023/04/07 02:52:10;;;;;;;;;;;;;;;7.68;99.89;101447.19;5023180;28;19917;-64
2023/04/07 02:54:36;;;;;;;;;;;;;;;7.69;99.79;101443.59;5019878;28;20361;-64
2023/04/07 02:57:01;;;;;;;;;;;;;;;7.67;99.86;101445.53;5017786;28;19917;-64
2023/04/07 02:59:26;;;;;;;;;;;;;;;7.66;100.00;101443.84;5022452;28;19917;-64
2023/04/07 03:01:51;;;;;;;;;;;;;;;7.66;100.00;101441.22;5025888;28;20325;-64
2023/04/07 03:04:16;;;;;;;;;;;;;;;7.67;99.88;101447.34;5020508;28;19917;-64
2023/04/07 03:06:42;;;;;;;;;;;;;;;7.66;100.00;101443.84;5026799;28;20020;-64
2023/04/07 03:09:07;;;;;;;;;;;;;;;7.66;99.95;101449.16;5024982;28;19917;-64
2023/04/07 03:11:32;;;;;;;;;;;;;;;7.65;100.00;101454.56;5022613;28;19971;-64
2023/04/07 03:13:57;;;;;;;;;;;;;;;7.64;100.00;101444.97;5024807;28;19970;-64
2023/04/07 03:16:22;;;;;;;;;;;;;;;7.63;100.00;101443.31;5023027;28;19913;-63
2023/04/07 03:18:47;;;;;;;;;;;;;;;7.61;100.00;101446.09;5023337;28;19923;-64
2023/04/07 03:21:12;;;;;;;;;;;;;;;7.62;100.00;101449.56;5018900;28;19917;-64
2023/04/07 03:23:38;;;;;;;;;;;;;;;7.62;100.00;101447.75;5023788;28;19932;-64
2023/04/07 03:26:03;;;;;;;;;;;;;;;7.60;100.00;101449.69;5027438;28;20011;-63
2023/04/07 03:28:28;;;;;;;;;;;;;;;7.59;100.00;101436.63;5023214;28;19924;-63
2023/04/07 03:30:53;;;;;;;;;;;;;;;7.59;100.00;101441.91;5025217;28;20364;-63
2023/04/07 03:33:19;;;;;;;;;;;;;;;7.57;100.00;101444.69;5025641;28;19960;-64
2023/04/07 03:35:44;;;;;;;;;;;;;;;7.57;100.00;101449.97;5025020;28;19924;-64
2023/04/07 03:38:10;;;;;;;;;;;;;;;7.57;100.00;101447.31;5022742;28;19917;-64
2023/04/07 03:40:35;;;;;;;;;;;;;;;7.57;100.00;101449.97;5019890;28;20302;-64
2023/04/07 03:43:00;;;;;;;;;;;;;;;7.57;100.00;101447.31;5019421;28;19990;-64
2023/04/07 03:45:25;;;;;;;;;;;;;;;7.57;100.00;101451.78;5020010;28;20011;-64
2023/04/07 03:47:50;;;;;;;;;;;;;;;7.58;100.00;101453.44;5015899;28;20429;-64
2023/04/07 03:50:15;;;;;;;;;;;;;;;7.56;100.00;101453.59;5027805;28;19957;-64
2023/04/07 03:52:41;;;;;;;;;;;;;;;7.56;100.00;101458.03;5021984;28;20306;-64
2023/04/07 03:55:06;;;;;;;;;;;;;;;7.56;100.00;101450.09;5021000;28;19979;-64
2023/04/07 03:57:32;;;;;;;;;;;;;;;7.55;100.00;101459.84;5025840;28;19960;-64
2023/04/07 03:59:57;;;;;;;;;;;;;;;7.56;100.00;101465.97;5019431;28;19972;-64
2023/04/07 04:02:22;;;;;;;;;;;;;;;7.55;100.00;101456.38;5018841;28;20330;-64
2023/04/07 04:04:47;;;;;;;;;;;;;;;7.52;100.00;101465.41;5023054;28;19921;-64
2023/04/07 04:07:12;;;;;;;;;;;;;;;7.52;100.00;101462.75;5019374;28;19937;-64
2023/04/07 04:09:38;;;;;;;;;;;;;;;7.51;100.00;101458.41;5029396;28;19963;-63
2023/04/07 04:12:03;;;;;;;;;;;;;;;7.49;100.00;101456.88;5021613;28;19917;-64
2023/04/07 04:14:28;;;;;;;;;;;;;;;7.46;100.00;101456.19;5027734;28;20675;-64
2023/04/07 04:16:53;;;;;;;;;;;;;;;7.44;100.00;101454.66;5024258;28;19927;-64
2023/04/07 04:19:19;;;;;;;;;;;;;;;7.40;100.00;101466.47;5024794;28;19924;-64
2023/04/07 04:21:44;;;;;;;;;;;;;;;7.37;100.00;101466.75;5028852;28;19932;-64
2023/04/07 04:24:10;;;;;;;;;;;;;;;7.34;100.00;101464.38;5027769;28;19924;-64
2023/04/07 04:26:35;;;;;;;;;;;;;;;7.31;100.00;101462.00;5020771;28;19952;-64
2023/04/07 04:29:01;;;;;;;;;;;;;;;7.26;100.00;101467.69;5027593;28;20052;-63
2023/04/07 04:31:26;;;;;;;;;;;;;;;7.24;100.00;101468.78;5016682;28;19964;-63
2023/04/07 04:33:52;;;;;;;;;;;;;;;7.21;100.00;101464.59;5022915;28;19960;-64
2023/04/07 04:36:17;;;;;;;;;;;;;;;7.19;100.00;101463.88;5022540;28;19932;-63
2023/04/07 04:38:42;;;;;;;;;;;;;;;7.20;100.00;101467.34;5018196;28;19925;-64
2023/04/07 04:41:07;;;;;;;;;;;;;;;7.17;99.91;101468.47;5015104;28;19972;-63
2023/04/07 04:43:32;;;;;;;;;;;;;;;7.15;99.98;101467.75;5017148;28;19921;-63
2023/04/07 04:45:57;;;;;;;;;;;;;;;7.16;100.00;101472.06;5013788;28;20701;-64
2023/04/07 04:48:23;;;;;;;;;;;;;;;7.17;99.97;101478.19;5016050;28;19964;-64
2023/04/07 04:50:48;;;;;;;;;;;;;;;7.18;100.00;101480.69;5019768;28;19921;-64
2023/04/07 04:53:13;;;;;;;;;;;;;;;7.17;100.00;101480.84;5028267;28;19944;-64
2023/04/07 04:55:39;;;;;;;;;;;;;;;7.18;100.00;101479.88;5025505;28;19917;-64
2023/04/07 04:58:05;;;;;;;;;;;;;;;7.20;100.00;101484.03;5027539;28;19928;-64
2023/04/07 05:00:30;;;;;;;;;;;;;;;7.20;100.00;101491.97;5019070;28;19925;-64
2023/04/07 05:02:55;;;;;;;;;;;;;;;7.22;100.00;101487.38;5016168;28;19960;-63
2023/04/07 05:05:20;;;;;;;;;;;;;;;7.24;100.00;101490.75;5019076;28;20318;-64
2023/04/07 05:07:46;;;;;;;;;;;;;;;7.24;100.00;101493.41;5025533;28;19944;-64
2023/04/07 05:10:11;;;;;;;;;;;;;;;7.26;100.00;101488.81;5026385;28;20352;-64
2023/04/07 05:12:36;;;;;;;;;;;;;;;7.27;100.00;101495.78;5022947;28;20407;-64
2023/04/07 05:15:02;;;;;;;;;;;;;;;7.28;100.00;101491.31;5024499;28;20325;-64
2023/04/07 05:17:27;;;;;;;;;;;;;;;7.28;100.00;101489.53;5023243;28;19916;-64
2023/04/07 05:19:52;;;;;;;;;;;;;;;7.28;100.00;101502.72;5024881;28;19924;-64
2023/04/07 05:22:17;;;;;;;;;;;;;;;7.29;100.00;101498.28;5022289;28;19920;-64
2023/04/07 05:24:42;;;;;;;;;;;;;;;7.28;100.00;101507.19;5025237;28;19971;-64
2023/04/07 05:27:08;;;;;;;;;;;;;;;7.27;100.00;101506.34;5024787;28;19936;-64
2023/04/07 05:29:33;;;;;;;;;;;;;;;7.27;100.00;101514.28;5025964;28;20012;-65
2023/04/07 05:32:00;;;;;;;;;;;;;;;7.27;100.00;101516.06;5023781;28;19921;-64
2023/04/07 05:34:26;;;;;;;;;;;;;;;7.28;100.00;101515.09;5024750;28;19926;-64
2023/04/07 05:36:51;;;;;;;;;;;;;;;7.27;100.00;101511.63;5027562;28;19939;-64
2023/04/07 05:39:16;;;;;;;;;;;;;;;7.29;100.00;101514.13;5026178;28;20003;-64
2023/04/07 05:41:41;;;;;;;;;;;;;;;7.29;100.00;101517.63;5025632;28;19917;-64
2023/04/07 05:44:06;;;;;;;;;;;;;;;7.31;100.00;101522.75;5027589;28;19925;-64
2023/04/07 05:46:32;;;;;;;;;;;;;;;7.32;100.00;101522.63;5027699;28;20008;-64
2023/04/07 05:48:57;;;;;;;;;;;;;;;7.33;100.00;101521.66;5028475;28;19917;-64
2023/04/07 05:51:22;;;;;;;;;;;;;;;7.35;100.00;101526.81;5024664;28;19920;-64
2023/04/07 05:53:47;;;;;;;;;;;;;;;7.36;100.00;101521.38;5025458;28;20008;-64
2023/04/07 05:56:12;;;;;;;;;;;;;;;7.39;100.00;101526.41;5027129;28;19979;-64
2023/04/07 05:58:37;;;;;;;;;;;;;;;7.40;100.00;101527.25;5029453;28;20058;-64
2023/04/07 06:01:03;;;;;;;;;;;;;;;7.42;100.00;101528.78;5024785;28;19917;-64
2023/04/07 06:03:28;;;;;;;;;;;;;;;7.43;100.00;101524.31;5023681;28;20078;-65
2023/04/07 06:05:53;;;;;;;;;;;;;;;7.46;100.00;101526.69;5024318;28;20279;-64
2023/04/07 06:08:18;;;;;;;;;;;;;;;7.47;100.00;101533.66;5026395;28;19924;-64
2023/04/07 06:10:44;;;;;;;;;;;;;;;7.48;100.00;101537.97;5023198;28;20056;-65
2023/04/07 06:13:09;;;;;;;;;;;;;;;7.50;100.00;101537.84;5020388;28;19917;-64
2023/04/07 06:15:34;;;;;;;;;;;;;;;7.51;100.00;101540.34;5020592;28;19918;-64
2023/04/07 06:18:00;;;;;;;;;;;;;;;7.52;100.00;101539.41;5024295;28;20291;-65
2023/04/07 06:20:26;;;;;;;;;;;;;;;7.54;100.00;101540.09;5022888;28;19928;-64
2023/04/07 06:22:52;;;;;;;;;;;;;;;7.55;100.00;101547.06;5027419;28;19917;-64
2023/04/07 06:25:17;;;;;;;;;;;;;;;7.58;100.00;101538.03;5023581;28;20470;-64
2023/04/07 06:27:42;;;;;;;;;;;;;;;7.62;100.00;101547.34;5023880;28;20007;-64
2023/04/07 06:30:08;;;;;;;;;;;;;;;7.64;100.00;101542.78;5021050;28;19929;-64
2023/04/07 06:32:33;;;;;;;;;;;;;;;7.65;100.00;101542.63;5024343;28;19921;-64
2023/04/07 06:34:58;;;;;;;;;;;;;;;7.69;100.00;101551.97;5020867;28;19921;-64
2023/04/07 06:37:24;;;;;;;;;;;;;;;7.72;100.00;101549.06;5021081;28;19921;-64
2023/04/07 06:39:50;;;;;;;;;;;;;;;7.74;100.00;101549.75;5024624;28;20317;-64
2023/04/07 06:42:15;;;;;;;;;;;;;;;7.75;100.00;101558.53;5026726;28;19924;-64
2023/04/07 06:44:40;;;;;;;;;;;;;;;7.76;100.00;101561.03;5025169;28;19944;-64
2023/04/07 06:47:06;;;;;;;;;;;;;;;7.79;100.00;101559.91;5030960;28;20391;-64
2023/04/07 06:49:31;;;;;;;;;;;;;;;7.82;100.00;101564.13;5029367;28;19924;-64
2023/04/07 06:51:56;;;;;;;;;;;;;;;7.82;100.00;101567.59;5024012;28;20011;-64
2023/04/07 06:54:21;;;;;;;;;;;;;;;7.83;100.00;101565.81;5019778;28;19927;-65
2023/04/07 06:56:46;;;;;;;;;;;;;;;7.84;100.00;101572.75;5027409;28;19917;-65
2023/04/07 06:59:12;;;;;;;;;;;;;;;7.84;100.00;101572.75;5025253;28;19923;-64
2023/04/07 07:01:37;;;;;;;;;;;;;;;7.85;100.00;101569.97;5031201;28;19923;-64
2023/04/07 07:04:04;;;;;;;;;;;;;;;7.87;100.00;101578.63;5022661;28;19921;-65
2023/04/07 07:06:30;;;;;;;;;;;;;;;7.92;100.00;101579.03;5018327;28;19925;-64
2023/04/07 07:08:55;;;;;;;;;;;;;;;7.95;100.00;101586.69;5020712;28;19963;-64
2023/04/07 07:11:21;;;;;;;;;;;;;;;8.01;100.00;101585.31;5023422;28;19921;-64
2023/04/07 07:13:46;;;;;;;;;;;;;;;8.08;100.00;101584.63;5027147;28;20036;-64
2023/04/07 07:16:12;;;;;;;;;;;;;;;8.14;100.00;101583.28;5025708;28;19917;-64
2023/04/07 07:18:37;;;;;;;;;;;;;;;8.22;100.00;101586.06;5027513;28;19931;-65
2023/04/07 07:21:02;;;;;;;;;;;;;;;8.27;100.00;101586.47;5030679;28;20314;-64
2023/04/07 07:23:28;;;;;;;;;;;;;;;8.32;100.00;101594.00;5026095;28;19921;-64
2023/04/07 07:25:53;;;;;;;;;;;;;;;8.34;100.00;101597.38;5024319;28;20461;-64
2023/04/07 07:28:20;;;;;;;;;;;;;;;8.31;100.00;101600.28;5026108;28;20294;-64
2023/04/07 07:30:45;;;;;;;;;;;;;;;8.29;100.00;101600.41;5014892;28;19952;-64
2023/04/07 07:33:10;;;;;;;;;;;;;;;8.29;100.00;101603.06;5020523;28;19967;-64
2023/04/07 07:35:36;;;;;;;;;;;;;;;8.34;100.00;101602.69;5018673;28;19918;-64
2023/04/07 07:38:02;;;;;;;;;;;;;;;8.38;100.00;101599.66;5024228;28;20440;-64
2023/04/07 07:40:27;;;;;;;;;;;;;;;8.44;100.00;101602.72;5026493;28;20023;-64
2023/04/07 07:42:52;;;;;;;;;;;;;;;8.50;100.00;101602.97;5022401;28;19921;-64
2023/04/07 07:45:18;;;;;;;;;;;;;;;8.52;100.00;101610.78;5031007;28;19917;-64
2023/04/07 07:47:43;;;;;;;;;;;;;;;8.51;100.00;101609.94;5022777;28;19921;-64
2023/04/07 07:50:09;;;;;;;;;;;;;;;8.53;99.83;101613.28;5018066;28;19940;-64
2023/04/07 07:52:34;;;;;;;;;;;;;;;8.57;99.52;101619.97;5025185;28;20028;-64
2023/04/07 07:54:59;;;;;;;;;;;;;;;8.60;99.29;101624.16;5029480;28;19921;-64
2023/04/07 07:57:24;;;;;;;;;;;;;;;8.62;99.12;101623.03;5024007;28;19925;-64
2023/04/07 07:59:50;;;;;;;;;;;;;;;8.64;99.00;101622.91;5023585;28;20000;-64
2023/04/07 08:02:15;;;;;;;;;;;;;;;8.65;99.08;101621.94;5024133;28;19921;-64
2023/04/07 08:04:40;;;;;;;;;;;;;;;8.61;98.45;101626.66;5034113;28;19924;-64
2023/04/07 08:07:05;;;;;;;;;;;;;;;8.62;98.49;101633.63;5030079;28;19943;-64
2023/04/07 08:09:31;;;;;;;;;;;;;;;8.62;97.98;101632.78;5023350;28;19995;-64
2023/04/07 08:11:56;;;;;;;;;;;;;;;8.61;97.59;101629.31;5019024;28;19917;-64
2023/04/07 08:14:21;;;;;;;;;;;;;;;8.61;97.60;101641.72;5024625;28;20426;-64
2023/04/07 08:16:48;;;;;;;;;;;;;;;8.61;97.63;101644.38;5022254;28;21172;-65
2023/04/07 08:19:13;;;;;;;;;;;;;;;8.62;97.31;101648.69;5020205;28;19917;-64
2023/04/07 08:21:39;;;;;;;;;;;;;;;8.63;97.51;101651.19;5022920;28;20008;-64
2023/04/07 08:24:04;;;;;;;;;;;;;;;8.64;97.32;101647.56;5026544;28;19944;-65
2023/04/07 08:26:30;;;;;;;;;;;;;;;8.65;96.69;101654.53;5025335;28;19925;-64
2023/04/07 08:28:55;;;;;;;;;;;;;;;8.68;96.27;101656.09;5024744;28;19921;-64
2023/04/07 08:31:20;;;;;;;;;;;;;;;8.72;96.63;101657.50;5024223;28;20379;-64
2023/04/07 08:33:46;;;;;;;;;;;;;;;8.80;96.47;101648.84;5029018;28;19963;-64
2023/04/07 08:36:11;;;;;;;;;;;;;;;8.88;96.21;101654.28;5027342;28;19924;-64
2023/04/07 08:38:36;;;;;;;;;;;;;;;8.96;96.40;101662.34;5026067;28;19924;-65
2023/04/07 08:41:03;;;;;;;;;;;;;;;9.01;96.25;101662.78;5022691;28;19924;-64
2023/04/07 08:43:29;;;;;;;;;;;;;;;9.05;95.83;101666.00;5014264;28;19972;-64
2023/04/07 08:45:56;;;;;;;;;;;;;;;9.04;95.21;101653.72;5015914;28;20314;-64
2023/04/07 08:48:22;;;;;;;;;;;;;;;9.13;94.95;101661.66;5021409;28;19925;-64
2023/04/07 08:50:48;;;;;;;;;;;;;;;9.16;94.69;101666.66;5024756;28;19917;-64
2023/04/07 08:53:16;;;;;;;;;;;;;;;9.19;94.25;101670.84;5017702;28;21455;-64
2023/04/07 08:55:42;;;;;;;;;;;;;;;9.22;94.19;101674.06;5019562;28;20386;-64
2023/04/07 08:58:11;;;;;;;;;;;;;;;9.28;93.97;101675.31;5024416;28;19928;-64
2023/04/07 09:00:37;;;;;;;;;;;;;;;9.32;94.45;101674.91;5011749;28;20292;-64
2023/04/07 09:03:03;;;;;;;;;;;;;;;9.37;94.42;101682.41;5024221;28;19995;-64
2023/04/07 09:05:29;;;;;;;;;;;;;;;9.39;94.02;101676.97;5023085;28;19920;-64
2023/04/07 09:07:54;;;;;;;;;;;;;;;9.34;93.44;101677.41;5015581;28;19914;-64
2023/04/07 09:10:20;;;;;;;;;;;;;;;9.35;93.34;101681.72;5019834;28;19925;-64
2023/04/07 09:12:45;;;;;;;;;;;;;;;9.35;92.91;101679.06;5020855;28;19917;-65
2023/04/07 09:15:10;;;;;;;;;;;;;;;9.37;93.28;101681.59;5019173;28;19914;-64
2023/04/07 09:17:35;;;;;;;;;;;;;;;9.37;93.17;101685.06;5021904;28;19980;-64
2023/04/07 09:20:01;;;;;;;;;;;;;;;9.37;92.88;101687.72;5013882;28;19945;-64
2023/04/07 09:22:41;;;;;;;;;;;;;;;9.37;92.46;101686.88;5022347;28;19924;-64
2023/04/07 09:25:28;;;;;;;;;;;;;;;9.30;92.04;101682.16;5020213;28;20007;-64
2023/04/07 09:27:54;;;;;;;;;;;;;;;9.28;92.11;101693.88;5015285;28;19988;-64
2023/04/07 09:30:20;;;;;;;;;;;;;;;9.30;92.37;101694.56;5017729;28;20412;-64
2023/04/07 09:32:45;;;;;;;;;;;;;;;9.34;92.08;101690.66;5017438;28;20028;-64
2023/04/07 09:35:10;;;;;;;;;;;;;;;9.34;91.39;101690.66;5020724;28;19924;-64
2023/04/07 09:37:36;;;;;;;;;;;;;;;9.31;91.48;101696.25;5020394;28;19921;-64
2023/04/07 09:40:01;;;;;;;;;;;;;;;9.30;91.44;101686.63;5018138;28;19918;-64
2023/04/07 09:42:31;;;;;;;;;;;;;;;9.37;91.68;101684.22;5020631;28;20305;-64
2023/04/07 09:44:56;;;;;;;;;;;;;;;9.38;91.34;101693.84;5021963;28;20390;-64
2023/04/07 09:47:26;;;;;;;;;;;;;;;9.38;90.81;101689.38;5019204;28;19921;-64
2023/04/07 09:49:52;;;;;;;;;;;;;;;9.34;90.58;101701.25;5022773;28;20383;-64
2023/04/07 09:52:19;;;;;;;;;;;;;;;9.32;90.73;101692.63;5017943;28;19914;-65
2023/04/07 09:54:45;;;;;;;;;;;;;;;9.32;90.72;101698.75;5025607;28;20007;-64
2023/04/07 09:57:10;;;;;;;;;;;;;;;9.35;90.71;101699.44;5010714;28;20008;-65
2023/04/07 09:59:37;;;;;;;;;;;;;;;9.29;90.19;101699.03;5025401;28;20375;-64
2023/04/07 10:02:02;;;;;;;;;;;;;;;9.30;90.14;101706.00;5025978;28;19921;-65
2023/04/07 10:04:28;;;;;;;;;;;;;;;9.35;90.42;101700.28;5021267;28;19984;-65
2023/04/07 10:06:53;;;;;;;;;;;;;;;9.40;90.27;101706.00;5023805;28;19975;-64
2023/04/07 10:09:19;;;;;;;;;;;;;;;9.50;89.90;101706.81;5023476;28;19925;-64
2023/04/07 10:11:44;;;;;;;;;;;;;;;9.58;90.26;101708.75;5010325;28;19914;-64
2023/04/07 10:14:10;;;;;;;;;;;;;;;9.62;89.71;101718.09;5024631;28;19917;-65
2023/04/07 10:16:38;;;;;;;;;;;;;;;9.61;89.15;101711.97;5022689;28;20353;-65
2023/04/07 10:19:05;;;;;;;;;;;;;;;9.60;88.48;101715.59;5026404;28;19921;-65
2023/04/07 10:21:30;;;;;;;;;;;;;;;9.61;88.88;101714.63;5021039;28;20016;-65
2023/04/07 10:24:03;;;;;;;;;;;;;;;9.64;88.40;101724.09;5010603;28;20008;-65
2023/04/07 10:26:30;;;;;;;;;;;;;;;9.66;88.42;101721.31;5022170;28;20348;-65
2023/04/07 10:28:59;;;;;;;;;;;;;;;9.68;88.47;101724.66;5022337;28;20410;-64
2023/04/07 10:31:25;;;;;;;;;;;;;;;9.72;88.74;101728.69;5022371;28;20006;-64
2023/04/07 10:33:51;;;;;;;;;;;;;;;9.71;88.59;101727.00;5021415;28;19971;-65
2023/04/07 10:36:18;;;;;;;;;;;;;;;9.69;88.68;101737.75;5024220;28;19932;-64
2023/04/07 10:39:03;;;;;;;;;;;;;;;9.61;88.32;101737.66;5022898;28;19928;-64
2023/04/07 10:41:38;;;;;;;;;;;;;;;9.51;88.32;101740.28;5022700;28;19963;-64
2023/04/07 10:44:04;;;;;;;;;;;;;;;9.41;88.45;101734.16;5026387;28;19978;-64
2023/04/07 10:46:46;;;;;;;;;;;;;;;9.38;88.31;101738.91;5025348;28;19983;-64
2023/04/07 10:49:12;;;;;;;;;;;;;;;9.35;88.85;101740.03;5022713;28;20421;-64
2023/04/07 10:51:37;;;;;;;;;;;;;;;9.37;89.03;101740.75;5022871;28;19921;-64
2023/04/07 10:54:22;;;;;;;;;;;;;;;9.34;89.03;101740.19;5023835;28;19917;-64
2023/04/07 10:57:02;;;;;;;;;;;;;;;9.29;88.92;101736.16;5028099;28;19972;-64
2023/04/07 10:59:28;;;;;;;;;;;;;;;9.27;88.86;101740.75;5023049;28;19968;-64
2023/04/07 11:02:12;;;;;;;;;;;;;;;9.28;89.06;101746.88;5025560;28;20291;-64
2023/04/07 11:04:38;;;;;;;;;;;;;;;9.26;88.64;101746.19;5025128;28;19921;-64
2023/04/07 11:07:03;;;;;;;;;;;;;;;9.22;89.10;101745.59;5016545;28;19983;-64
2023/04/07 11:09:29;;;;;;;;;;;;;;;9.26;88.69;101752.34;5019096;28;20382;-64
2023/04/07 11:11:54;;;;;;;;;;;;;;;9.27;89.41;101746.06;5026702;28;20459;-64
2023/04/07 11:14:27;;;;;;;;;;;;;;;9.27;89.47;101750.53;5020855;28;19917;-64
2023/04/07 11:16:52;;;;;;;;;;;;;;;9.30;89.36;101750.22;5030960;28;19970;-64
2023/04/07 11:19:17;;;;;;;;;;;;;;;9.32;89.09;101746.47;5027358;28;20305;-64
2023/04/07 11:21:42;;;;;;;;;;;;;;;9.27;89.13;101745.22;5017421;28;20103;-64
2023/04/07 11:24:08;;;;;;;;;;;;;;;9.26;89.02;101754.16;5023914;28;20098;-64
2023/04/07 11:26:37;;;;;;;;;;;;;;;9.25;89.02;101749.78;5021714;28;19971;-64
2023/04/07 11:29:03;;;;;;;;;;;;;;;9.28;89.23;101752.19;5031315;28;20374;-64
2023/04/07 11:31:30;;;;;;;;;;;;;;;9.35;89.35;101758.59;5024089;28;19921;-64
2023/04/07 11:34:03;;;;;;;;;;;;;;;9.36;88.98;101749.66;5014201;28;20337;-64
2023/04/07 11:36:33;;;;;;;;;;;;;;;9.39;89.19;101760.00;5011952;28;19939;-64
2023/04/07 11:38:59;;;;;;;;;;;;;;;9.48;89.40;101751.19;5019456;28;19928;-65
2023/04/07 11:41:26;;;;;;;;;;;;;;;9.61;89.27;101751.75;5013948;28;19925;-64
2023/04/07 11:44:10;;;;;;;;;;;;;;;9.69;89.17;101755.50;5022121;28;19957;-64
2023/04/07 11:46:36;;;;;;;;;;;;;;;9.72;89.00;101764.00;5009990;28;19921;-64
2023/04/07 11:49:11;;;;;;;;;;;;;;;9.74;88.36;101771.81;5025303;28;19921;-64
2023/04/07 11:51:36;;;;;;;;;;;;;;;9.74;87.88;101771.81;5024653;28;19923;-64
2023/04/07 11:54:02;;;;;;;;;;;;;;;9.68;87.95;101764.44;5022126;28;19917;-65
2023/04/07 11:56:27;;;;;;;;;;;;;;;9.66;87.24;101769.03;5023877;28;19952;-64
2023/04/07 11:58:54;;;;;;;;;;;;;;;9.58;87.14;101767.09;5027103;28;19912;-65
2023/04/07 12:01:20;;;;;;;;;;;;;;;9.55;86.92;101767.38;5018975;28;20510;-64
2023/04/07 12:03:58;;;;;;;;;;;;;;;9.53;86.92;101777.28;5019685;28;20035;-64
2023/04/07 12:06:33;;;;;;;;;;;;;;;9.53;86.77;101777.28;5021196;28;19928;-65
2023/04/07 12:08:59;;;;;;;;;;;;;;;9.53;86.99;101774.63;5013996;28;20391;-64
2023/04/07 12:11:25;;;;;;;;;;;;;;;9.53;86.99;101780.75;5025762;28;19978;-64
2023/04/07 12:13:50;;;;;;;;;;;;;;;9.52;87.25;101781.72;5021088;28;20416;-64
2023/04/07 12:16:16;;;;;;;;;;;;;;;9.52;86.98;101794.16;5021618;28;19921;-65
2023/04/07 12:18:42;;;;;;;;;;;;;;;9.49;86.52;101783.84;5018204;28;19913;-65
2023/04/07 12:21:07;;;;;;;;;;;;;;;9.48;86.59;101785.66;5024170;28;20133;-64
2023/04/07 12:23:32;;;;;;;;;;;;;;;9.47;86.90;101788.44;5007269;28;19917;-65
2023/04/07 12:25:58;;;;;;;;;;;;;;;9.48;86.99;101790.13;5015017;28;19929;-64
2023/04/07 12:28:23;;;;;;;;;;;;;;;9.51;87.16;101789.84;5026537;28;19928;-65
2023/04/07 12:30:48;;;;;;;;;;;;;;;9.53;87.22;101793.19;5025541;28;19917;-64
2023/04/07 12:33:13;;;;;;;;;;;;;;;9.60;87.26;101794.31;5025845;28;20354;-64
2023/04/07 12:35:39;;;;;;;;;;;;;;;9.62;87.55;101798.50;5025768;28;20387;-65